createdAt,value
2018-05-08T00:02:29.973Z,2.27
2018-05-08T00:05:36.301Z,1.90
2018-05-08T00:08:42.121Z,2.13
2018-05-08T00:11:47.733Z,2.30
2018-05-08T00:14:52.942Z,1.93
2018-05-08T00:17:59.094Z,2.80
2018-05-08T00:21:05.229Z,2.10
2018-05-08T00:24:10.852Z,2.47
2018-05-08T00:27:17.065Z,2.37
2018-05-08T00:30:22.884Z,1.80
2018-05-08T00:33:28.184Z,2.10
2018-05-08T00:36:33.817Z,2.30
2018-05-08T00:39:39.205Z,2.37
2018-05-08T00:42:45.425Z,2.13
2018-05-08T00:45:51.512Z,2.10
2018-05-08T00:48:56.717Z,2.17
2018-05-08T00:52:02.877Z,1.70
2018-05-08T00:55:08.462Z,1.90
2018-05-08T00:58:14.580Z,2.00
2018-05-08T01:01:19.981Z,2.40
2018-05-08T01:04:26.513Z,2.70
2018-05-08T01:07:32.659Z,2.97
2018-05-08T01:10:38.595Z,1.90
2018-05-08T01:13:44.247Z,2.30
2018-05-08T01:16:50.089Z,2.77
2018-05-08T01:19:55.699Z,2.47
2018-05-08T01:23:00.899Z,2.73
2018-05-08T01:26:06.741Z,2.27
2018-05-08T01:29:13.371Z,2.40
2018-05-08T01:32:19.493Z,2.37
2018-05-08T01:35:24.949Z,2.17
2018-05-08T01:38:30.159Z,2.20
2018-05-08T01:41:36.064Z,2.17
2018-05-08T01:44:40.817Z,2.30
2018-05-08T01:47:46.639Z,2.30
2018-05-08T01:50:51.842Z,2.47
2018-05-08T01:53:58.394Z,2.23
2018-05-08T01:57:04.049Z,2.03
2018-05-08T02:00:09.926Z,2.30
2018-05-08T02:03:15.955Z,2.13
2018-05-08T02:06:22.089Z,2.30
2018-05-08T02:09:27.357Z,2.40
2018-05-08T02:12:32.289Z,1.83
2018-05-08T02:15:38.007Z,2.00
2018-05-08T02:18:45.258Z,2.20
2018-05-08T02:21:51.372Z,2.20
2018-05-08T02:24:56.573Z,2.43
2018-05-08T02:28:01.799Z,1.70
2018-05-08T02:31:07.945Z,2.13
2018-05-08T02:34:14.063Z,1.80
2018-05-08T02:37:19.666Z,2.77
2018-05-08T02:40:26.735Z,2.43
2018-05-08T02:43:32.845Z,2.13
2018-05-08T02:46:39.801Z,2.13
2018-05-08T02:49:45.912Z,2.23
2018-05-08T02:52:51.681Z,1.93
2018-05-08T02:55:56.892Z,2.50
2018-05-08T02:59:02.102Z,2.13
2018-05-08T03:02:07.318Z,1.93
2018-05-08T03:05:12.938Z,2.07
2018-05-08T03:08:19.077Z,2.20
2018-05-08T03:11:24.942Z,1.57
2018-05-08T03:14:31.165Z,2.27
2018-05-08T03:17:37.418Z,2.17
2018-05-08T03:20:42.613Z,2.10
2018-05-08T03:23:47.909Z,2.10
2018-05-08T03:26:54.120Z,1.87
2018-05-08T03:29:59.925Z,2.37
2018-05-08T03:33:05.129Z,1.97
2018-05-08T03:36:10.359Z,2.23
2018-05-08T03:39:15.562Z,2.20
2018-05-08T03:42:21.188Z,1.60
2018-05-08T03:45:27.113Z,2.17
2018-05-08T03:48:32.932Z,2.20
2018-05-08T03:51:37.878Z,2.57
2018-05-08T03:54:43.613Z,2.40
2018-05-08T03:57:49.750Z,2.60
2018-05-08T04:01:06.450Z,2.17
2018-05-08T04:04:23.249Z,1.97
2018-05-08T04:07:39.912Z,1.87
2018-05-08T04:10:45.742Z,2.20
2018-05-08T04:13:51.674Z,2.27
2018-05-08T04:16:57.818Z,2.50
2018-05-08T04:20:03.177Z,2.20
2018-05-08T04:23:11.293Z,1.67
2018-05-08T04:26:17.110Z,2.80
2018-05-08T04:29:23.224Z,2.23
2018-05-08T04:32:29.137Z,2.27
2018-05-08T04:35:34.341Z,2.70
2018-05-08T04:38:40.462Z,2.47
2018-05-08T04:41:46.372Z,2.37
2018-05-08T04:44:52.514Z,2.60
2018-05-08T04:47:59.616Z,2.53
2018-05-08T04:51:06.453Z,2.60
2018-05-08T04:54:13.200Z,2.13
2018-05-08T04:57:19.961Z,2.60
2018-05-08T05:00:27.048Z,2.20
2018-05-08T05:03:34.102Z,1.80
2018-05-08T05:06:40.921Z,2.80
2018-05-08T05:09:48.053Z,2.43
2018-05-08T05:12:54.811Z,2.70
2018-05-08T05:16:00.701Z,2.67
2018-05-08T05:19:05.909Z,2.50
2018-05-08T05:22:11.581Z,2.10
2018-05-08T05:25:17.925Z,2.03
2018-05-08T05:28:24.047Z,2.50
2018-05-08T05:31:30.165Z,2.47
2018-05-08T05:34:36.953Z,2.47
2018-05-08T05:37:42.920Z,2.10
2018-05-08T05:40:48.941Z,2.73
2018-05-08T05:43:54.821Z,2.77
2018-05-08T05:47:01.834Z,2.30
2018-05-08T05:50:08.032Z,2.60
2018-05-08T05:53:13.239Z,2.80
2018-05-08T05:56:20.373Z,2.43
2018-05-08T05:59:26.501Z,2.10
2018-05-08T06:02:31.373Z,2.40
2018-05-08T06:05:37.317Z,2.20
2018-05-08T06:08:42.574Z,2.00
2018-05-08T06:11:48.430Z,2.67
2018-05-08T06:14:53.638Z,2.07
2018-05-08T06:17:59.470Z,3.00
2018-05-08T06:21:06.329Z,2.53
2018-05-08T06:24:12.469Z,2.60
2018-05-08T06:27:19.637Z,2.30
2018-05-08T06:30:25.468Z,3.03
2018-05-08T06:33:30.682Z,2.27
2018-05-08T06:36:36.086Z,2.30
2018-05-08T06:39:42.202Z,2.63
2018-05-08T06:42:48.367Z,2.63
2018-05-08T06:45:54.457Z,2.20
2018-05-08T06:49:00.187Z,2.20
2018-05-08T06:52:06.340Z,2.47
2018-05-08T06:55:12.448Z,2.77
2018-05-08T06:58:18.169Z,2.90
2018-05-08T07:01:25.226Z,2.43
2018-05-08T07:04:30.848Z,2.10
2018-05-08T07:07:37.929Z,2.30
2018-05-08T07:10:44.469Z,2.73
2018-05-08T07:13:50.254Z,2.30
2018-05-08T07:16:55.521Z,2.33
2018-05-08T07:20:02.353Z,3.10
2018-05-08T07:23:09.497Z,2.20
2018-05-08T07:26:16.225Z,2.60
2018-05-08T07:29:22.452Z,1.97
2018-05-08T07:32:28.452Z,3.00
2018-05-08T07:35:34.570Z,2.33
2018-05-08T07:38:39.769Z,2.20
2018-05-08T07:41:45.301Z,2.50
2018-05-08T07:44:50.557Z,2.10
2018-05-08T07:47:55.765Z,2.63
2018-05-08T07:51:01.155Z,2.20
2018-05-08T07:54:07.281Z,2.20
2018-05-08T07:57:13.457Z,2.00
2018-05-08T08:00:18.668Z,2.10
2018-05-08T08:03:24.818Z,2.30
2018-05-08T08:06:31.942Z,2.00
2018-05-08T08:09:39.033Z,2.33
2018-05-08T08:12:45.165Z,2.57
2018-05-08T08:15:51.306Z,2.03
2018-05-08T08:18:56.620Z,2.40
2018-05-08T08:22:01.822Z,2.30
2018-05-08T08:25:07.672Z,2.07
2018-05-08T08:28:13.790Z,2.30
2018-05-08T08:31:20.454Z,2.57
2018-05-08T08:34:26.608Z,1.97
2018-05-08T08:37:32.722Z,1.67
2018-05-08T08:40:37.944Z,2.00
2018-05-08T08:43:45.000Z,2.03
2018-05-08T08:46:51.137Z,2.17
2018-05-08T08:49:56.110Z,1.90
2018-05-08T08:53:02.237Z,1.67
2018-05-08T08:56:07.502Z,2.17
2018-05-08T08:59:12.869Z,2.10
2018-05-08T09:02:18.073Z,2.07
2018-05-08T09:05:24.595Z,1.97
2018-05-08T09:08:30.733Z,2.00
2018-05-08T09:11:37.593Z,1.90
2018-05-08T09:14:43.473Z,1.83
2018-05-08T09:17:49.402Z,1.83
2018-05-08T09:20:56.636Z,1.77
2018-05-08T09:24:02.497Z,1.93
2018-05-08T09:27:08.605Z,1.60
2018-05-08T09:30:14.739Z,1.90
2018-05-08T09:33:20.849Z,1.73
2018-05-08T09:36:26.975Z,1.80
2018-05-08T09:39:33.870Z,1.90
2018-05-08T09:42:39.993Z,1.90
2018-05-08T09:45:45.940Z,1.53
2018-05-08T09:48:51.873Z,1.80
2018-05-08T09:51:57.861Z,1.57
2018-05-08T09:55:04.886Z,1.83
2018-05-08T09:58:11.009Z,1.60
2018-05-08T10:01:17.161Z,1.87
2018-05-08T10:04:23.273Z,1.47
2018-05-08T10:07:30.322Z,1.70
2018-05-08T10:10:37.350Z,1.60
2018-05-08T10:13:43.485Z,2.00
2018-05-08T10:16:48.694Z,1.67
2018-05-08T10:19:53.931Z,1.57
2018-05-08T10:22:59.162Z,1.53
2018-05-08T10:26:04.358Z,1.40
2018-05-08T10:29:09.566Z,1.33
2018-05-08T10:32:14.802Z,1.60
2018-05-08T10:35:20.014Z,1.60
2018-05-08T10:38:25.229Z,1.60
2018-05-08T10:41:30.214Z,1.70
2018-05-08T10:44:36.352Z,1.80
2018-05-08T10:47:43.478Z,1.73
2018-05-08T10:50:49.065Z,1.67
2018-05-08T10:53:54.278Z,1.50
2018-05-08T10:57:00.077Z,2.07
2018-05-08T11:00:06.893Z,1.70
2018-05-08T11:03:12.121Z,1.57
2018-05-08T11:06:17.328Z,1.67
2018-05-08T11:09:22.542Z,1.70
2018-05-08T11:12:27.473Z,1.60
2018-05-08T11:15:32.819Z,1.20
2018-05-08T11:18:39.957Z,1.30
2018-05-08T11:21:47.017Z,1.57
2018-05-08T11:24:53.185Z,1.70
2018-05-08T11:27:59.307Z,1.70
2018-05-08T11:31:06.413Z,1.43
2018-05-08T11:34:12.641Z,2.00
2018-05-08T11:37:18.478Z,1.07
2018-05-08T11:40:25.309Z,1.40
2018-05-08T11:43:31.424Z,1.20
2018-05-08T11:46:38.382Z,1.70
2018-05-08T11:49:44.504Z,1.37
2018-05-08T11:52:50.613Z,1.87
2018-05-08T11:55:56.725Z,1.33
2018-05-08T11:59:03.758Z,1.30
2018-05-08T12:02:09.881Z,1.43
2018-05-08T12:05:16.108Z,1.30
2018-05-08T12:08:21.945Z,1.37
2018-05-08T12:11:28.069Z,1.50
2018-05-08T12:14:33.763Z,1.40
2018-05-08T12:17:40.238Z,1.40
2018-05-08T12:20:45.457Z,1.97
2018-05-08T12:23:50.676Z,1.30
2018-05-08T12:26:56.509Z,1.50
2018-05-08T12:30:03.169Z,1.60
2018-05-08T12:33:10.253Z,1.50
2018-05-08T12:36:16.467Z,1.50
2018-05-08T12:39:22.409Z,1.60
2018-05-08T12:42:28.581Z,1.50
2018-05-08T12:45:34.697Z,1.10
2018-05-08T12:48:41.550Z,1.20
2018-05-08T12:51:47.386Z,1.50
2018-05-08T12:54:53.344Z,1.20
2018-05-08T12:57:59.209Z,1.43
2018-05-08T13:01:04.414Z,1.60
2018-05-08T13:04:10.591Z,1.40
2018-05-08T13:07:16.727Z,1.40
2018-05-08T13:10:22.874Z,1.33
2018-05-08T13:13:28.554Z,1.17
2018-05-08T13:16:33.825Z,1.40
2018-05-08T13:19:39.948Z,1.23
2018-05-08T13:22:45.862Z,1.20
2018-05-08T13:25:51.973Z,1.80
2018-05-08T13:28:59.058Z,1.60
2018-05-08T13:32:04.893Z,1.50
2018-05-08T13:35:10.097Z,1.20
2018-05-08T13:38:15.313Z,1.10
2018-05-08T13:41:20.512Z,1.20
2018-05-08T13:44:25.772Z,1.43
2018-05-08T13:47:32.055Z,1.30
2018-05-08T13:50:38.245Z,1.30
2018-05-08T13:53:44.169Z,1.53
2018-05-08T13:56:51.222Z,1.47
2018-05-08T13:59:58.254Z,1.50
2018-05-08T14:03:04.180Z,1.63
2018-05-08T14:06:11.210Z,1.33
2018-05-08T14:09:17.342Z,1.43
2018-05-08T14:12:23.173Z,1.27
2018-05-08T14:15:29.381Z,1.60
2018-05-08T14:18:34.213Z,1.20
2018-05-08T14:21:39.432Z,1.37
2018-05-08T14:24:44.643Z,1.43
2018-05-08T14:27:50.757Z,1.47
2018-05-08T14:30:56.877Z,1.60
2018-05-08T14:34:03.005Z,0.87
2018-05-08T14:37:09.001Z,1.30
2018-05-08T14:40:16.085Z,1.37
2018-05-08T14:43:22.405Z,1.33
2018-05-08T14:46:28.082Z,1.10
2018-05-08T14:49:33.363Z,1.10
2018-05-08T14:52:39.624Z,1.10
2018-05-08T14:55:45.265Z,1.30
2018-05-08T14:58:50.520Z,1.50
2018-05-08T15:01:57.079Z,0.90
2018-05-08T15:05:02.705Z,1.20
2018-05-08T15:08:09.752Z,1.20
2018-05-08T15:11:15.792Z,1.07
2018-05-08T15:14:21.342Z,1.00
2018-05-08T15:17:26.558Z,1.13
2018-05-08T15:20:32.910Z,1.20
2018-05-08T15:23:39.772Z,1.20
2018-05-08T15:26:45.802Z,1.43
2018-05-08T15:29:51.925Z,1.10
2018-05-08T15:32:58.110Z,1.10
2018-05-08T15:36:03.321Z,1.17
2018-05-08T15:39:10.541Z,1.23
2018-05-08T15:42:16.674Z,1.10
2018-05-08T15:45:21.885Z,1.20
2018-05-08T15:48:27.497Z,1.47
2018-05-08T15:51:32.745Z,1.03
2018-05-08T15:54:38.517Z,1.20
2018-05-08T15:57:43.725Z,1.20
2018-05-08T16:00:49.382Z,1.30
2018-05-08T16:03:54.824Z,1.60
2018-05-08T16:06:59.996Z,1.30
2018-05-08T16:10:04.634Z,1.20
2018-05-08T16:13:10.571Z,1.67
2018-05-08T16:16:16.751Z,1.20
2018-05-08T16:19:23.842Z,1.30
2018-05-08T16:22:30.786Z,1.30
2018-05-08T16:25:37.889Z,1.00
2018-05-08T16:28:43.678Z,1.63
2018-05-08T16:31:48.893Z,1.40
2018-05-08T16:34:54.732Z,1.40
2018-05-08T16:37:59.975Z,1.37
2018-05-08T16:41:06.106Z,1.70
2018-05-08T16:44:12.071Z,1.40
2018-05-08T16:47:18.274Z,1.27
2018-05-08T16:50:23.481Z,1.43
2018-05-08T16:53:29.633Z,1.00
2018-05-08T16:56:35.861Z,1.10
2018-05-08T16:59:42.634Z,1.10
2018-05-08T17:02:49.201Z,1.00
2018-05-08T17:05:54.490Z,1.37
2018-05-08T17:09:00.676Z,1.50
2018-05-08T17:12:05.633Z,1.30
2018-05-08T17:15:11.818Z,1.30
2018-05-08T17:18:17.117Z,1.13
2018-05-08T17:21:22.769Z,1.13
2018-05-08T17:24:28.656Z,1.60
2018-05-08T17:27:33.862Z,1.47
2018-05-08T17:30:39.980Z,1.50
2018-05-08T17:33:46.527Z,1.33
2018-05-08T17:36:52.398Z,1.17
2018-05-08T17:39:57.264Z,1.47
2018-05-08T17:43:02.491Z,1.30
2018-05-08T17:46:07.721Z,1.20
2018-05-08T17:49:12.969Z,1.40
2018-05-08T17:52:18.157Z,1.37
2018-05-08T17:55:24.258Z,1.40
2018-05-08T17:58:29.908Z,1.10
2018-05-08T18:01:35.864Z,1.50
2018-05-08T18:04:41.834Z,1.33
2018-05-08T18:07:47.082Z,1.10
2018-05-08T18:10:52.297Z,1.10
2018-05-08T18:13:57.525Z,1.37
2018-05-08T18:17:03.677Z,1.40
2018-05-08T18:20:08.790Z,1.60
2018-05-08T18:23:15.322Z,1.43
2018-05-08T18:26:21.454Z,2.90
2018-05-08T18:29:27.651Z,4.10
2018-05-08T18:32:33.285Z,4.13
2018-05-08T18:35:38.519Z,20.30
2018-05-08T18:38:44.201Z,37.80
2018-05-08T18:41:49.419Z,31.77
2018-05-08T18:44:54.677Z,21.20
2018-05-08T18:47:59.886Z,9.00
2018-05-08T18:51:05.101Z,6.17
2018-05-08T18:54:10.341Z,4.20
2018-05-08T18:57:15.569Z,3.00
2018-05-08T19:00:21.457Z,2.93
2018-05-08T19:03:26.959Z,2.13
2018-05-08T19:06:32.270Z,1.97
2018-05-08T19:09:38.391Z,2.13
2018-05-08T19:12:45.449Z,2.10
2018-05-08T19:15:57.064Z,1.67
2018-05-08T19:19:09.203Z,1.30
2018-05-08T19:25:24.040Z,1.60
2018-05-08T19:28:36.165Z,1.33
2018-05-08T19:31:42.462Z,1.43
2018-05-08T19:34:52.678Z,1.70
2018-05-08T19:38:17.481Z,1.20
2018-05-08T19:41:24.141Z,1.60
2018-05-08T19:44:30.264Z,2.07
2018-05-08T19:47:36.500Z,1.50
2018-05-08T19:50:41.722Z,1.67
2018-05-08T19:53:46.921Z,1.50
2018-05-08T19:56:52.176Z,1.40
2018-05-08T19:59:59.113Z,1.20
2018-05-08T20:03:04.685Z,1.50
2018-05-08T20:06:10.540Z,1.43
2018-05-08T20:09:15.718Z,1.87
2018-05-08T20:12:20.926Z,1.93
2018-05-08T20:15:26.141Z,1.10
2018-05-08T20:18:31.350Z,1.20
2018-05-08T20:21:36.557Z,1.10
2018-05-08T20:24:42.713Z,1.27
2018-05-08T20:27:48.821Z,1.20
2018-05-08T20:30:55.874Z,1.53
2018-05-08T20:34:02.028Z,1.23
2018-05-08T20:37:07.233Z,1.37
2018-05-08T20:40:12.166Z,1.10
2018-05-08T20:43:18.299Z,1.40
2018-05-08T20:46:24.334Z,1.53
2018-05-08T20:49:30.273Z,1.77
2018-05-08T20:52:37.285Z,1.07
2018-05-08T20:55:43.296Z,1.40
2018-05-08T20:58:48.503Z,1.77
2018-05-08T21:01:53.736Z,1.80
2018-05-08T21:04:58.947Z,1.50
2018-05-08T21:08:03.822Z,1.33
2018-05-08T21:11:11.029Z,1.23
2018-05-08T21:14:17.786Z,1.30
2018-05-08T21:17:24.589Z,0.90
2018-05-08T21:20:29.850Z,1.87
2018-05-08T21:23:35.080Z,1.30
2018-05-08T21:26:41.019Z,1.50
2018-05-08T21:29:52.030Z,1.57
2018-05-08T21:32:57.869Z,1.27
2018-05-08T21:36:03.229Z,1.30
2018-05-08T21:39:08.448Z,1.50
2018-05-08T21:42:14.769Z,1.30
2018-05-08T21:45:20.888Z,1.47
2018-05-08T21:48:27.009Z,1.47
2018-05-08T21:51:33.133Z,1.33
2018-05-08T21:54:39.381Z,1.17
2018-05-08T21:57:45.211Z,1.23
2018-05-08T22:00:50.102Z,1.10
2018-05-08T22:03:55.575Z,1.40
2018-05-08T22:07:01.910Z,1.43
2018-05-08T22:10:07.322Z,1.80
2018-05-08T22:13:13.481Z,1.50
2018-05-08T22:16:19.293Z,1.87
2018-05-08T22:19:25.264Z,1.43
2018-05-08T22:22:31.245Z,1.57
2018-05-08T22:25:37.461Z,1.43
2018-05-08T22:28:43.233Z,1.60
2018-05-08T22:31:50.265Z,1.50
2018-05-08T22:34:57.326Z,1.50
2018-05-08T22:38:03.444Z,2.00
2018-05-08T22:41:09.573Z,1.80
2018-05-08T22:44:15.608Z,1.73
2018-05-08T22:47:21.525Z,1.77
2018-05-08T22:50:27.352Z,1.43
2018-05-08T22:53:32.601Z,1.53
2018-05-08T22:56:38.001Z,1.50
2018-05-08T22:59:42.943Z,1.53
2018-05-08T23:02:49.053Z,2.00
2018-05-08T23:05:56.117Z,1.97
2018-05-08T23:09:03.006Z,1.70
2018-05-08T23:12:07.941Z,2.03
2018-05-08T23:15:13.177Z,1.20
2018-05-08T23:18:18.381Z,1.63
2018-05-08T23:21:23.590Z,1.50
2018-05-08T23:24:28.563Z,1.73
2018-05-08T23:27:33.833Z,1.50
2018-05-08T23:30:39.620Z,1.60
2018-05-08T23:33:46.750Z,1.83
2018-05-08T23:36:53.665Z,1.70
2018-05-08T23:40:00.717Z,1.40
2018-05-08T23:43:07.746Z,1.40
2018-05-08T23:46:14.898Z,1.97
2018-05-08T23:49:21.978Z,1.67
2018-05-08T23:52:28.922Z,1.87
2018-05-08T23:55:35.047Z,1.47
2018-05-08T23:58:41.981Z,2.00
